Hlavní strana
METAR-TAF:

METAR-TAF

Letiště :

Indianapolis, Indiana, Spojené státy americké

zeměpisná šířka: 40-01-50N, zeměpisná délka: 086-15-05W, výška: 281 m

Aktuální stav počasí

Zpráva byla vytvořena před 21 hodinami a 42 minutami, v 23:55 UTC
Bezvětří
Teplota 24°C
Vlhkost vzduchu 94%
Tlak 1011 hPa
Viditelnost: 16.1 km
Polojasno ve výšce 3000 ft

METAR: KTYQ 202355Z AUTO 00000KT 10SM SCT030 24/23 A2984 RMK AO2 60004 T02400226 10270 20240

Čas: 15:37 (21:37 UTC)


TAF: chybějící

Stav a předpovědi počasí z více než 4 000 letišť (zprávy METAR a TAF).

Červené a žluté tečky na mapě představují dostupné meteorologické stanice.

Když kurzor umístíte na tečku, zobrazí se název stanice.

Pak kliknutím zobrazíte stav a předpověď počasí.

Chcete-li změnit mapu, kliknutím na zelené tlačítko se znaménkem +mapu přiblížíte, kliknutím na zelené tlačítko se znaménkem – mapu oddálíte a kliknutím na zelené šipky přejdete na sousední mapy.


METAR-TAF: